Ewa Beach, HI (96706)

11:06 PM HST on August 29, 2016 (GMT -1000)
Ewa Elementary | | Change Station

Elev 46 ft 21.34 °N, 158.03 °W | Updated 45 minutes ago

Clear
Clear
77.6 °F
Feels Like 80 °F
N
1.8
Wind Variable Wind from ENE
Gusts 4.5 mph

Today
High -- | Low -- °F
--% Chance of Precip.
Yesterday
High -- | Low -- °F
Precip. -- in
Pressure 30.07 in
Visibility 10.0 miles
Clouds Clear
Heat Index 80 °F
Dew Point 68 °F
Humidity 71%
Rainfall Not available.
Snow Depth Not available.
6:14 AM 6:50 PM
Waning Crescent, 4% visible
METAR PHJR 300853Z 06005KT 10SM CLR 25/18 A3005 RMK AO2 SLP183 T02500183 50012
Pressure 30.07 in
Visibility 10.0 miles
Clouds Clear
Heat Index 80 °F
Dew Point 68 °F
Humidity 71%
Rainfall Not available.
Snow Depth Not available.
6:14 AM 6:50 PM
Waning Crescent, 4% visible
METAR PHJR 300853Z 06005KT 10SM CLR 25/18 A3005 RMK AO2 SLP183 T02500183 50012
Hurricane Madeline rapidly intensified from Sunday into Monday morning, and it may take a close swipe at parts of the Hawaiian Islands in the days ahead. Madeline's estimated peak surface winds increased from a 50 mph tropical storm Sunday morning, to a 125 mph Category 3 hurricane by Monday evening. A hurricane watch has been issued for Hawaii's Big Island. This means hurricane-force winds are possible within the warning area in the next 48 hours or less.

10-Day Weather Forecast

Almanac

Astronomy

Aug. 29, 2016 Rise Set
Actual Time
Civil Twilight
Nautical Twilight
Astronomical Twilight
Moon
Length of Visible Light
Length of Day
Tomorrow will be .
, % of the Moon is Illuminated

Today's Extremes

State Highs State Lows

Community

WunderPhotos

Upload Photos

1,935,795 photos uploaded!

WunderBlog® & News

Nearby

Air Quality

  Air Quality AQ Index Pollutant
Not available.

Snow Depth

Station Depth Elevation

Earthquake Activity

City Distance Mag. Time & Date
Minimum magnitude displayed is 2.5.

Coastal Water Temperatures

Place Temperature

Stations

Nearby Weather Stations

Station Location Temp. Windchill Dew Point Humidity Wind Precip. Elev Updated Type
                   

Watches & Warnings

There are currently no watches in effect.